KBFI/BFI METAR and TAF weather

Enter ICAO airport designator
Station Type Date Time Source
KBFI METAR 2018/04/27 00:53 UTC NOAA

KBFI 270053Z 33009G15KT 10SM CLR 24/06 A2987 RMK AO2 SLP114 T02440061


Station Type Date Time Source
KBFI Decoded METAR 2018/04/27 00:53 UTC NOAA

SEATTLE BOEING FIELD, WA, United States (KBFI) 47-33N 122-19W 4M
Apr 26, 2018 - 08:53 PM EDT / 2018.04.27 0053 UTC
Wind: from the NNW (330 degrees) at 10 MPH (9 KT) gusting to 17 MPH (15 KT):0
Visibility: 10 mile(s):0
Sky conditions: clear
Temperature: 75.9 F (24.4 C)
Dew Point: 43.0 F (6.1 C)
Relative Humidity: 30%
Pressure (altimeter): 29.87 in. Hg (1011 hPa)
ob: KBFI 270053Z 33009G15KT 10SM CLR 24/06 A2987 RMK AO2 SLP114 T02440061
cycle: 1

Station Type Date Time Source
KBFI TAF 2018/04/26 18:27 UTC NOAA

TAF KBFI 261723Z 2618/2718 32006KT P6SM SKC
FM270400 VRB03KT P6SM SCT250
FM270800 20006KT P6SM SCT250
FM271500 19006KT P6SM BKN015


Example: see airport list